sensor_id;sensor_type;location;lat;lon;timestamp;temperature;humidity
60242;SHT30;46103;52.076;113.488;2023-06-10T00:00:27;16.68;58.18
60242;SHT30;46103;52.076;113.488;2023-06-10T00:03:33;16.68;58.25
60242;SHT30;46103;52.076;113.488;2023-06-10T00:06:45;16.88;57.77
60242;SHT30;46103;52.076;113.488;2023-06-10T00:10:09;17.00;57.67
60242;SHT30;46103;52.076;113.488;2023-06-10T00:13:29;16.98;57.84
60242;SHT30;46103;52.076;113.488;2023-06-10T00:16:51;17.05;58.00
60242;SHT30;46103;52.076;113.488;2023-06-10T00:19:58;17.15;58.05
60242;SHT30;46103;52.076;113.488;2023-06-10T00:23:20;17.33;57.71
60242;SHT30;46103;52.076;113.488;2023-06-10T00:26:28;17.49;57.33
60242;SHT30;46103;52.076;113.488;2023-06-10T00:29:47;17.67;57.09
60242;SHT30;46103;52.076;113.488;2023-06-10T00:32:54;17.98;56.15
60242;SHT30;46103;52.076;113.488;2023-06-10T00:36:05;18.18;55.47
60242;SHT30;46103;52.076;113.488;2023-06-10T00:39:34;18.42;55.28
60242;SHT30;46103;52.076;113.488;2023-06-10T00:42:41;18.60;54.91
60242;SHT30;46103;52.076;113.488;2023-06-10T00:46:09;18.62;55.01
60242;SHT30;46103;52.076;113.488;2023-06-10T00:50:16;18.67;55.13
60242;SHT30;46103;52.076;113.488;2023-06-10T00:53:40;18.72;55.14
60242;SHT30;46103;52.076;113.488;2023-06-10T00:57:48;19.00;54.35
60242;SHT30;46103;52.076;113.488;2023-06-10T01:01:13;19.18;53.85
60242;SHT30;46103;52.076;113.488;2023-06-10T01:04:19;19.42;52.21
60242;SHT30;46103;52.076;113.488;2023-06-10T01:11:02;19.79;49.68
60242;SHT30;46103;52.076;113.488;2023-06-10T01:14:12;20.07;49.99
60242;SHT30;46103;52.076;113.488;2023-06-10T01:18:00;20.37;49.08
60242;SHT30;46103;52.076;113.488;2023-06-10T01:21:23;20.49;48.18
60242;SHT30;46103;52.076;113.488;2023-06-10T01:24:38;20.51;47.82
60242;SHT30;46103;52.076;113.488;2023-06-10T01:27:49;20.68;47.40
60242;SHT30;46103;52.076;113.488;2023-06-10T01:31:09;20.65;47.25
60242;SHT30;46103;52.076;113.488;2023-06-10T01:34:19;20.66;46.91
60242;SHT30;46103;52.076;113.488;2023-06-10T01:37:27;20.72;46.93
60242;SHT30;46103;52.076;113.488;2023-06-10T01:40:33;20.82;46.53
60242;SHT30;46103;52.076;113.488;2023-06-10T01:43:44;20.89;46.70
60242;SHT30;46103;52.076;113.488;2023-06-10T01:46:50;20.87;46.05
60242;SHT30;46103;52.076;113.488;2023-06-10T01:49:57;20.92;45.82
60242;SHT30;46103;52.076;113.488;2023-06-10T01:53:04;20.93;45.85
60242;SHT30;46103;52.076;113.488;2023-06-10T01:56:26;21.26;43.62
60242;SHT30;46103;52.076;113.488;2023-06-10T01:59:46;21.34;43.47
60242;SHT30;46103;52.076;113.488;2023-06-10T02:02:51;21.58;43.60
60242;SHT30;46103;52.076;113.488;2023-06-10T02:05:59;21.96;42.79
60242;SHT30;46103;52.076;113.488;2023-06-10T02:09:17;22.27;41.64
60242;SHT30;46103;52.076;113.488;2023-06-10T02:12:24;22.37;41.62
60242;SHT30;46103;52.076;113.488;2023-06-10T02:15:31;22.41;41.76
60242;SHT30;46103;52.076;113.488;2023-06-10T02:18:37;22.46;41.80
60242;SHT30;46103;52.076;113.488;2023-06-10T02:21:58;22.34;42.07
60242;SHT30;46103;52.076;113.488;2023-06-10T02:25:19;22.36;42.08
60242;SHT30;46103;52.076;113.488;2023-06-10T02:28:25;22.36;41.83
60242;SHT30;46103;52.076;113.488;2023-06-10T02:31:34;22.26;42.16
60242;SHT30;46103;52.076;113.488;2023-06-10T02:34:47;22.24;42.39
60242;SHT30;46103;52.076;113.488;2023-06-10T02:37:56;22.29;42.06
60242;SHT30;46103;52.076;113.488;2023-06-10T02:41:04;22.32;42.09
60242;SHT30;46103;52.076;113.488;2023-06-10T02:44:12;22.26;41.91
60242;SHT30;46103;52.076;113.488;2023-06-10T02:47:31;22.32;41.78
60242;SHT30;46103;52.076;113.488;2023-06-10T02:50:39;22.34;41.57
60242;SHT30;46103;52.076;113.488;2023-06-10T02:54:05;22.14;41.87
60242;SHT30;46103;52.076;113.488;2023-06-10T02:57:11;22.20;41.58
60242;SHT30;46103;52.076;113.488;2023-06-10T03:00:21;22.23;40.74
60242;SHT30;46103;52.076;113.488;2023-06-10T03:03:27;22.54;40.67
60242;SHT30;46103;52.076;113.488;2023-06-10T03:06:41;22.79;40.52
60242;SHT30;46103;52.076;113.488;2023-06-10T03:10:03;23.19;38.93
60242;SHT30;46103;52.076;113.488;2023-06-10T03:13:16;23.34;38.92
60242;SHT30;46103;52.076;113.488;2023-06-10T03:16:28;23.43;38.95
60242;SHT30;46103;52.076;113.488;2023-06-10T03:19:36;23.97;38.45
60242;SHT30;46103;52.076;113.488;2023-06-10T03:22:43;24.30;37.17
60242;SHT30;46103;52.076;113.488;2023-06-10T03:25:49;24.32;36.89
60242;SHT30;46103;52.076;113.488;2023-06-10T03:28:58;23.74;38.06
60242;SHT30;46103;52.076;113.488;2023-06-10T03:32:03;23.42;38.57
60242;SHT30;46103;52.076;113.488;2023-06-10T03:35:08;23.18;38.12
60242;SHT30;46103;52.076;113.488;2023-06-10T03:38:14;23.16;39.19
60242;SHT30;46103;52.076;113.488;2023-06-10T03:41:19;23.31;38.11
60242;SHT30;46103;52.076;113.488;2023-06-10T03:44:40;23.51;38.30
60242;SHT30;46103;52.076;113.488;2023-06-10T03:47:44;23.95;37.15
60242;SHT30;46103;52.076;113.488;2023-06-10T03:50:49;24.16;36.34
60242;SHT30;46103;52.076;113.488;2023-06-10T03:53:55;24.29;36.13
60242;SHT30;46103;52.076;113.488;2023-06-10T03:56:59;24.44;35.77
60242;SHT30;46103;52.076;113.488;2023-06-10T04:00:05;24.94;35.24
60242;SHT30;46103;52.076;113.488;2023-06-10T04:03:18;25.22;35.12
60242;SHT30;46103;52.076;113.488;2023-06-10T04:06:26;25.32;34.86
60242;SHT30;46103;52.076;113.488;2023-06-10T04:09:32;25.03;35.39
60242;SHT30;46103;52.076;113.488;2023-06-10T04:12:37;25.15;35.07
60242;SHT30;46103;52.076;113.488;2023-06-10T04:15:41;24.95;35.39
60242;SHT30;46103;52.076;113.488;2023-06-10T04:18:50;25.11;34.95
60242;SHT30;46103;52.076;113.488;2023-06-10T04:22:07;25.56;34.95
60242;SHT30;46103;52.076;113.488;2023-06-10T04:25:11;26.02;34.36
60242;SHT30;46103;52.076;113.488;2023-06-10T04:28:16;26.56;33.20
60242;SHT30;46103;52.076;113.488;2023-06-10T04:31:20;26.84;32.40
60242;SHT30;46103;52.076;113.488;2023-06-10T04:34:26;26.65;32.50
60242;SHT30;46103;52.076;113.488;2023-06-10T04:37:54;26.86;32.43
60242;SHT30;46103;52.076;113.488;2023-06-10T04:41:00;27.02;32.12
60242;SHT30;46103;52.076;113.488;2023-06-10T04:44:09;27.03;32.18
60242;SHT30;46103;52.076;113.488;2023-06-10T04:47:34;26.80;32.85
60242;SHT30;46103;52.076;113.488;2023-06-10T04:51:20;26.25;33.68
60242;SHT30;46103;52.076;113.488;2023-06-10T04:54:31;25.86;34.02
60242;SHT30;46103;52.076;113.488;2023-06-10T04:57:47;26.04;33.48
60242;SHT30;46103;52.076;113.488;2023-06-10T05:00:55;26.10;33.01
60242;SHT30;46103;52.076;113.488;2023-06-10T05:04:22;25.89;33.31
60242;SHT30;46103;52.076;113.488;2023-06-10T05:07:43;26.10;32.46
60242;SHT30;46103;52.076;113.488;2023-06-10T05:10:50;26.34;32.36
60242;SHT30;46103;52.076;113.488;2023-06-10T05:13:57;26.13;32.82
60242;SHT30;46103;52.076;113.488;2023-06-10T05:17:16;26.45;32.53
60242;SHT30;46103;52.076;113.488;2023-06-10T05:20:27;26.93;32.01
60242;SHT30;46103;52.076;113.488;2023-06-10T05:23:48;26.93;31.50
60242;SHT30;46103;52.076;113.488;2023-06-10T05:27:09;26.59;31.99
60242;SHT30;46103;52.076;113.488;2023-06-10T05:30:15;26.14;32.72
60242;SHT30;46103;52.076;113.488;2023-06-10T05:33:27;25.97;32.86
60242;SHT30;46103;52.076;113.488;2023-06-10T05:36:32;26.21;32.88
60242;SHT30;46103;52.076;113.488;2023-06-10T05:39:53;26.41;32.44
60242;SHT30;46103;52.076;113.488;2023-06-10T05:43:03;26.29;32.60
60242;SHT30;46103;52.076;113.488;2023-06-10T05:46:11;26.16;32.86
60242;SHT30;46103;52.076;113.488;2023-06-10T05:49:39;26.31;32.47
60242;SHT30;46103;52.076;113.488;2023-06-10T05:52:46;26.60;32.27
60242;SHT30;46103;52.076;113.488;2023-06-10T05:56:05;26.93;31.90
60242;SHT30;46103;52.076;113.488;2023-06-10T05:59:09;27.51;31.22
60242;SHT30;46103;52.076;113.488;2023-06-10T06:02:17;27.70;30.85
60242;SHT30;46103;52.076;113.488;2023-06-10T06:05:44;27.52;30.86
60242;SHT30;46103;52.076;113.488;2023-06-10T06:08:55;27.78;31.08
60242;SHT30;46103;52.076;113.488;2023-06-10T06:12:02;28.27;30.24
60242;SHT30;46103;52.076;113.488;2023-06-10T06:15:23;28.45;29.84
60242;SHT30;46103;52.076;113.488;2023-06-10T06:18:28;28.81;29.67
60242;SHT30;46103;52.076;113.488;2023-06-10T06:21:52;29.08;29.44
60242;SHT30;46103;52.076;113.488;2023-06-10T06:25:00;29.10;29.28
60242;SHT30;46103;52.076;113.488;2023-06-10T06:28:10;29.13;29.09
60242;SHT30;46103;52.076;113.488;2023-06-10T06:31:19;29.02;29.20
60242;SHT30;46103;52.076;113.488;2023-06-10T06:34:45;29.25;29.28
60242;SHT30;46103;52.076;113.488;2023-06-10T06:37:51;29.61;28.86
60242;SHT30;46103;52.076;113.488;2023-06-10T06:41:16;31.45;26.76
60242;SHT30;46103;52.076;113.488;2023-06-10T06:44:24;32.93;25.34
60242;SHT30;46103;52.076;113.488;2023-06-10T06:47:35;33.59;24.33
60242;SHT30;46103;52.076;113.488;2023-06-10T06:51:21;34.15;23.75
60242;SHT30;46103;52.076;113.488;2023-06-10T06:54:56;34.90;23.19
60242;SHT30;46103;52.076;113.488;2023-06-10T06:58:35;35.30;22.85
60242;SHT30;46103;52.076;113.488;2023-06-10T07:02:15;36.52;21.80
60242;SHT30;46103;52.076;113.488;2023-06-10T07:05:52;36.77;21.42
60242;SHT30;46103;52.076;113.488;2023-06-10T07:08:59;37.13;20.94
60242;SHT30;46103;52.076;113.488;2023-06-10T07:12:34;37.20;20.72
60242;SHT30;46103;52.076;113.488;2023-06-10T07:15:41;37.62;20.27
60242;SHT30;46103;52.076;113.488;2023-06-10T07:19:25;37.90;19.88
60242;SHT30;46103;52.076;113.488;2023-06-10T07:23:00;36.75;20.84
60242;SHT30;46103;52.076;113.488;2023-06-10T07:26:06;35.94;21.65
60242;SHT30;46103;52.076;113.488;2023-06-10T07:30:04;34.19;23.11
60242;SHT30;46103;52.076;113.488;2023-06-10T07:34:14;35.02;22.82
60242;SHT30;46103;52.076;113.488;2023-06-10T07:38:03;35.84;22.21
60242;SHT30;46103;52.076;113.488;2023-06-10T07:41:33;37.35;21.15
60242;SHT30;46103;52.076;113.488;2023-06-10T07:45:12;38.41;20.14
60242;SHT30;46103;52.076;113.488;2023-06-10T07:48:38;38.76;19.70
60242;SHT30;46103;52.076;113.488;2023-06-10T07:52:19;39.58;19.18
60242;SHT30;46103;52.076;113.488;2023-06-10T07:55:43;39.67;18.77
60242;SHT30;46103;52.076;113.488;2023-06-10T07:59:13;39.90;18.89
60242;SHT30;46103;52.076;113.488;2023-06-10T08:02:25;40.57;18.51
60242;SHT30;46103;52.076;113.488;2023-06-10T08:05:36;41.38;17.92
60242;SHT30;46103;52.076;113.488;2023-06-10T08:08:59;41.89;17.54
60242;SHT30;46103;52.076;113.488;2023-06-10T08:12:25;42.47;17.27
60242;SHT30;46103;52.076;113.488;2023-06-10T08:15:36;42.33;17.28
60242;SHT30;46103;52.076;113.488;2023-06-10T08:18:47;42.51;17.03
60242;SHT30;46103;52.076;113.488;2023-06-10T08:22:17;42.12;17.33
60242;SHT30;46103;52.076;113.488;2023-06-10T08:26:02;42.12;17.16
60242;SHT30;46103;52.076;113.488;2023-06-10T08:29:55;41.15;17.70
60242;SHT30;46103;52.076;113.488;2023-06-10T08:39:30;41.86;17.08
60242;SHT30;46103;52.076;113.488;2023-06-10T08:43:32;41.30;17.63
60242;SHT30;46103;52.076;113.488;2023-06-10T08:48:35;42.96;16.53
60242;SHT30;46103;52.076;113.488;2023-06-10T08:58:13;45.77;15.26
60242;SHT30;46103;52.076;113.488;2023-06-10T09:01:33;46.40;15.00
60242;SHT30;46103;52.076;113.488;2023-06-10T09:05:24;46.88;14.54
60242;SHT30;46103;52.076;113.488;2023-06-10T09:09:08;46.25;14.83
60242;SHT30;46103;52.076;113.488;2023-06-10T09:13:21;46.23;14.81
60242;SHT30;46103;52.076;113.488;2023-06-10T09:18:07;44.56;15.60
60242;SHT30;46103;52.076;113.488;2023-06-10T09:22:03;45.05;15.34
60242;SHT30;46103;52.076;113.488;2023-06-10T09:26:10;44.22;15.70
60242;SHT30;46103;52.076;113.488;2023-06-10T09:35:47;45.72;14.95
60242;SHT30;46103;52.076;113.488;2023-06-10T09:44:50;46.85;14.57
60242;SHT30;46103;52.076;113.488;2023-06-10T09:49:07;46.57;14.78
60242;SHT30;46103;52.076;113.488;2023-06-10T09:53:12;46.91;14.49
60242;SHT30;46103;52.076;113.488;2023-06-10T09:57:19;47.26;14.36
60242;SHT30;46103;52.076;113.488;2023-06-10T10:00:52;47.84;14.10
60242;SHT30;46103;52.076;113.488;2023-06-10T10:05:05;48.21;13.88
60242;SHT30;46103;52.076;113.488;2023-06-10T10:19:19;47.73;14.25
60242;SHT30;46103;52.076;113.488;2023-06-10T10:23:09;46.30;14.54
60242;SHT30;46103;52.076;113.488;2023-06-10T10:28:12;46.42;14.52
60242;SHT30;46103;52.076;113.488;2023-06-10T10:37:54;44.74;15.42
60242;SHT30;46103;52.076;113.488;2023-06-10T10:42:56;44.95;15.39
60242;SHT30;46103;52.076;113.488;2023-06-10T11:07:37;45.82;15.13
60242;SHT30;46103;52.076;113.488;2023-06-10T11:42:19;41.82;17.09
60242;SHT30;46103;52.076;113.488;2023-06-10T11:47:11;41.58;17.19
60242;SHT30;46103;52.076;113.488;2023-06-10T12:08:16;37.76;19.52
60242;SHT30;46103;52.076;113.488;2023-06-10T12:12:45;36.88;20.11
60242;SHT30;46103;52.076;113.488;2023-06-10T12:16:32;35.53;21.34
60242;SHT30;46103;52.076;113.488;2023-06-10T12:19:55;33.96;22.89
60242;SHT30;46103;52.076;113.488;2023-06-10T12:23:16;33.23;23.63
60242;SHT30;46103;52.076;113.488;2023-06-10T12:27:02;32.34;24.61
60242;SHT30;46103;52.076;113.488;2023-06-10T12:30:34;31.46;25.58
60242;SHT30;46103;52.076;113.488;2023-06-10T12:34:09;30.19;26.99
60242;SHT30;46103;52.076;113.488;2023-06-10T12:37:40;28.99;28.44
60242;SHT30;46103;52.076;113.488;2023-06-10T12:41:04;27.97;29.76
60242;SHT30;46103;52.076;113.488;2023-06-10T12:44:14;27.27;30.73
60242;SHT30;46103;52.076;113.488;2023-06-10T12:47:34;26.73;31.75
60242;SHT30;46103;52.076;113.488;2023-06-10T12:50:44;26.17;32.57
60242;SHT30;46103;52.076;113.488;2023-06-10T12:53:50;25.79;33.28
60242;SHT30;46103;52.076;113.488;2023-06-10T12:57:20;25.35;34.16
60242;SHT30;46103;52.076;113.488;2023-06-10T13:00:43;24.94;34.92
60242;SHT30;46103;52.076;113.488;2023-06-10T13:04:06;24.63;35.72
60242;SHT30;46103;52.076;113.488;2023-06-10T13:08:00;24.33;36.63
60242;SHT30;46103;52.076;113.488;2023-06-10T13:12:57;24.05;37.45
60242;SHT30;46103;52.076;113.488;2023-06-10T13:16:40;23.84;37.94
60242;SHT30;46103;52.076;113.488;2023-06-10T13:20:00;23.71;38.28
60242;SHT30;46103;52.076;113.488;2023-06-10T13:23:25;23.56;38.82
60242;SHT30;46103;52.076;113.488;2023-06-10T13:27:12;23.37;39.32
60242;SHT30;46103;52.076;113.488;2023-06-10T13:31:43;23.18;39.79
60242;SHT30;46103;52.076;113.488;2023-06-10T13:35:26;23.03;40.11
60242;SHT30;46103;52.076;113.488;2023-06-10T13:39:16;22.90;40.34
60242;SHT30;46103;52.076;113.488;2023-06-10T13:42:56;22.78;40.54
60242;SHT30;46103;52.076;113.488;2023-06-10T13:46:47;22.68;40.83
60242;SHT30;46103;52.076;113.488;2023-06-10T13:50:12;22.57;40.92
60242;SHT30;46103;52.076;113.488;2023-06-10T13:54:27;22.50;41.09
60242;SHT30;46103;52.076;113.488;2023-06-10T13:58:48;22.34;41.39
60242;SHT30;46103;52.076;113.488;2023-06-10T14:02:28;22.23;41.61
60242;SHT30;46103;52.076;113.488;2023-06-10T14:06:26;22.12;41.98
60242;SHT30;46103;52.076;113.488;2023-06-10T14:10:00;22.05;42.12
60242;SHT30;46103;52.076;113.488;2023-06-10T14:13:57;21.95;42.28
60242;SHT30;46103;52.076;113.488;2023-06-10T14:18:01;21.82;42.50
60242;SHT30;46103;52.076;113.488;2023-06-10T14:21:48;21.75;42.77
60242;SHT30;46103;52.076;113.488;2023-06-10T14:26:31;21.66;42.85
60242;SHT30;46103;52.076;113.488;2023-06-10T14:31:36;21.57;43.06
60242;SHT30;46103;52.076;113.488;2023-06-10T14:36:07;21.50;43.22
60242;SHT30;46103;52.076;113.488;2023-06-10T14:40:35;21.26;45.12
60242;SHT30;46103;52.076;113.488;2023-06-10T14:44:08;21.03;45.72
60242;SHT30;46103;52.076;113.488;2023-06-10T14:47:57;20.86;46.53
60242;SHT30;46103;52.076;113.488;2023-06-10T14:51:24;20.69;46.77
60242;SHT30;46103;52.076;113.488;2023-06-10T14:59:31;20.35;47.70
60242;SHT30;46103;52.076;113.488;2023-06-10T15:03:14;20.21;47.81
60242;SHT30;46103;52.076;113.488;2023-06-10T15:06:50;20.11;47.93
60242;SHT30;46103;52.076;113.488;2023-06-10T15:10:12;20.06;48.51
60242;SHT30;46103;52.076;113.488;2023-06-10T15:13:44;19.87;48.98
60242;SHT30;46103;52.076;113.488;2023-06-10T15:17:11;19.70;49.21
60242;SHT30;46103;52.076;113.488;2023-06-10T15:21:22;19.56;50.03
60242;SHT30;46103;52.076;113.488;2023-06-10T15:25:21;19.41;50.54
60242;SHT30;46103;52.076;113.488;2023-06-10T15:29:04;19.32;50.37
60242;SHT30;46103;52.076;113.488;2023-06-10T15:33:20;19.18;51.18
60242;SHT30;46103;52.076;113.488;2023-06-10T15:36:40;19.10;51.40
60242;SHT30;46103;52.076;113.488;2023-06-10T15:40:59;18.96;51.77
60242;SHT30;46103;52.076;113.488;2023-06-10T15:44:19;18.84;51.71
60242;SHT30;46103;52.076;113.488;2023-06-10T15:47:58;18.76;51.85
60242;SHT30;46103;52.076;113.488;2023-06-10T15:51:17;18.69;51.85
60242;SHT30;46103;52.076;113.488;2023-06-10T15:54:38;18.64;52.40
60242;SHT30;46103;52.076;113.488;2023-06-10T15:58:03;18.59;52.90
60242;SHT30;46103;52.076;113.488;2023-06-10T16:01:22;18.41;53.47
60242;SHT30;46103;52.076;113.488;2023-06-10T16:04:47;18.25;54.01
60242;SHT30;46103;52.076;113.488;2023-06-10T16:08:09;18.11;54.39
60242;SHT30;46103;52.076;113.488;2023-06-10T16:11:34;18.01;54.35
60242;SHT30;46103;52.076;113.488;2023-06-10T16:14:56;17.87;54.69
60242;SHT30;46103;52.076;113.488;2023-06-10T16:18:25;17.69;55.39
60242;SHT30;46103;52.076;113.488;2023-06-10T16:22:10;17.47;55.70
60242;SHT30;46103;52.076;113.488;2023-06-10T16:25:48;17.38;56.41
60242;SHT30;46103;52.076;113.488;2023-06-10T16:29:54;17.26;56.86
60242;SHT30;46103;52.076;113.488;2023-06-10T16:33:38;17.11;56.95
60242;SHT30;46103;52.076;113.488;2023-06-10T16:37:18;17.10;56.99
60242;SHT30;46103;52.076;113.488;2023-06-10T16:40:39;17.01;56.68
60242;SHT30;46103;52.076;113.488;2023-06-10T16:44:16;17.02;56.66
60242;SHT30;46103;52.076;113.488;2023-06-10T16:47:46;17.00;56.13
60242;SHT30;46103;52.076;113.488;2023-06-10T16:51:04;16.87;57.31
60242;SHT30;46103;52.076;113.488;2023-06-10T16:54:11;16.78;57.31
60242;SHT30;46103;52.076;113.488;2023-06-10T16:57:39;16.67;57.16
60242;SHT30;46103;52.076;113.488;2023-06-10T17:00:47;16.60;57.09
60242;SHT30;46103;52.076;113.488;2023-06-10T17:04:19;16.56;58.11
60242;SHT30;46103;52.076;113.488;2023-06-10T17:08:10;16.57;57.54
60242;SHT30;46103;52.076;113.488;2023-06-10T17:11:19;16.59;57.75
60242;SHT30;46103;52.076;113.488;2023-06-10T17:15:04;16.50;57.44
60242;SHT30;46103;52.076;113.488;2023-06-10T17:19:14;16.37;57.56
60242;SHT30;46103;52.076;113.488;2023-06-10T17:22:35;16.26;57.71
60242;SHT30;46103;52.076;113.488;2023-06-10T17:26:21;16.23;58.48
60242;SHT30;46103;52.076;113.488;2023-06-10T17:29:50;16.20;58.53
60242;SHT30;46103;52.076;113.488;2023-06-10T17:33:10;16.12;58.47
60242;SHT30;46103;52.076;113.488;2023-06-10T17:36:19;16.06;58.41
60242;SHT30;46103;52.076;113.488;2023-06-10T17:39:39;15.97;58.76
60242;SHT30;46103;52.076;113.488;2023-06-10T17:43:00;15.82;59.03
60242;SHT30;46103;52.076;113.488;2023-06-10T17:46:22;15.81;59.50
60242;SHT30;46103;52.076;113.488;2023-06-10T17:49:45;15.75;59.34
60242;SHT30;46103;52.076;113.488;2023-06-10T17:53:06;15.71;59.97
60242;SHT30;46103;52.076;113.488;2023-06-10T17:56:25;15.68;60.05
60242;SHT30;46103;52.076;113.488;2023-06-10T17:59:50;15.58;60.09
60242;SHT30;46103;52.076;113.488;2023-06-10T18:03:16;15.51;59.86
60242;SHT30;46103;52.076;113.488;2023-06-10T18:06:34;15.43;60.40
60242;SHT30;46103;52.076;113.488;2023-06-10T18:09:53;15.33;60.99
60242;SHT30;46103;52.076;113.488;2023-06-10T18:13:13;15.16;61.48
60242;SHT30;46103;52.076;113.488;2023-06-10T18:16:34;15.07;62.13
60242;SHT30;46103;52.076;113.488;2023-06-10T18:20:12;15.13;61.70
60242;SHT30;46103;52.076;113.488;2023-06-10T18:23:31;15.05;61.07
60242;SHT30;46103;52.076;113.488;2023-06-10T18:26:37;14.92;61.03
60242;SHT30;46103;52.076;113.488;2023-06-10T18:29:45;14.87;61.72
60242;SHT30;46103;52.076;113.488;2023-06-10T18:33:09;14.79;61.67
60242;SHT30;46103;52.076;113.488;2023-06-10T18:36:29;14.71;62.11
60242;SHT30;46103;52.076;113.488;2023-06-10T18:39:35;14.61;62.44
60242;SHT30;46103;52.076;113.488;2023-06-10T18:42:56;14.60;62.66
60242;SHT30;46103;52.076;113.488;2023-06-10T18:46:03;14.50;62.73
60242;SHT30;46103;52.076;113.488;2023-06-10T18:49:08;14.44;63.49
60242;SHT30;46103;52.076;113.488;2023-06-10T18:52:13;14.29;63.76
60242;SHT30;46103;52.076;113.488;2023-06-10T18:55:20;14.16;64.51
60242;SHT30;46103;52.076;113.488;2023-06-10T18:58:38;13.99;65.02
60242;SHT30;46103;52.076;113.488;2023-06-10T19:01:45;13.87;65.30
60242;SHT30;46103;52.076;113.488;2023-06-10T19:04:52;13.82;64.88
60242;SHT30;46103;52.076;113.488;2023-06-10T19:07:59;13.75;65.22
60242;SHT30;46103;52.076;113.488;2023-06-10T19:11:20;13.72;65.42
60242;SHT30;46103;52.076;113.488;2023-06-10T19:14:40;13.65;65.43
60242;SHT30;46103;52.076;113.488;2023-06-10T19:17:49;13.58;65.44
60242;SHT30;46103;52.076;113.488;2023-06-10T19:21:08;13.55;65.75
60242;SHT30;46103;52.076;113.488;2023-06-10T19:24:27;13.57;65.84
60242;SHT30;46103;52.076;113.488;2023-06-10T19:27:34;13.61;65.71
60242;SHT30;46103;52.076;113.488;2023-06-10T19:30:42;13.64;65.93
60242;SHT30;46103;52.076;113.488;2023-06-10T19:33:51;13.65;65.71
60242;SHT30;46103;52.076;113.488;2023-06-10T19:37:03;13.66;65.12
60242;SHT30;46103;52.076;113.488;2023-06-10T19:40:08;13.69;65.95
60242;SHT30;46103;52.076;113.488;2023-06-10T19:43:13;13.64;66.45
60242;SHT30;46103;52.076;113.488;2023-06-10T19:46:20;13.59;65.89
60242;SHT30;46103;52.076;113.488;2023-06-10T19:49:25;13.51;66.74
60242;SHT30;46103;52.076;113.488;2023-06-10T19:52:33;13.44;67.53
60242;SHT30;46103;52.076;113.488;2023-06-10T19:55:51;13.44;67.83
60242;SHT30;46103;52.076;113.488;2023-06-10T19:58:58;13.46;67.77
60242;SHT30;46103;52.076;113.488;2023-06-10T20:02:06;13.41;67.75
60242;SHT30;46103;52.076;113.488;2023-06-10T20:05:11;13.36;67.26
60242;SHT30;46103;52.076;113.488;2023-06-10T20:08:18;13.30;67.02
60242;SHT30;46103;52.076;113.488;2023-06-10T20:11:23;13.26;67.15
60242;SHT30;46103;52.076;113.488;2023-06-10T20:14:31;13.23;67.11
60242;SHT30;46103;52.076;113.488;2023-06-10T20:17:37;13.14;66.99
60242;SHT30;46103;52.076;113.488;2023-06-10T20:20:48;13.13;67.26
60242;SHT30;46103;52.076;113.488;2023-06-10T20:23:54;13.14;67.24
60242;SHT30;46103;52.076;113.488;2023-06-10T20:27:02;13.11;67.34
60242;SHT30;46103;52.076;113.488;2023-06-10T20:30:23;13.09;67.22
60242;SHT30;46103;52.076;113.488;2023-06-10T20:33:29;13.03;67.59
60242;SHT30;46103;52.076;113.488;2023-06-10T20:36:34;12.96;67.49
60242;SHT30;46103;52.076;113.488;2023-06-10T20:39:53;12.92;67.48
60242;SHT30;46103;52.076;113.488;2023-06-10T20:42:59;12.88;67.36
60242;SHT30;46103;52.076;113.488;2023-06-10T20:46:08;12.82;67.61
60242;SHT30;46103;52.076;113.488;2023-06-10T20:49:13;12.86;67.75
60242;SHT30;46103;52.076;113.488;2023-06-10T20:52:23;12.92;67.48
60242;SHT30;46103;52.076;113.488;2023-06-10T20:55:30;12.96;67.34
60242;SHT30;46103;52.076;113.488;2023-06-10T20:58:48;12.99;67.94
60242;SHT30;46103;52.076;113.488;2023-06-10T21:02:11;13.06;67.84
60242;SHT30;46103;52.076;113.488;2023-06-10T21:05:24;13.11;68.01
60242;SHT30;46103;52.076;113.488;2023-06-10T21:08:32;13.19;67.84
60242;SHT30;46103;52.076;113.488;2023-06-10T21:11:38;13.28;67.37
60242;SHT30;46103;52.076;113.488;2023-06-10T21:14:56;13.27;67.67
60242;SHT30;46103;52.076;113.488;2023-06-10T21:18:02;13.38;67.53
60242;SHT30;46103;52.076;113.488;2023-06-10T21:21:23;13.41;67.07
60242;SHT30;46103;52.076;113.488;2023-06-10T21:24:29;13.33;66.98
60242;SHT30;46103;52.076;113.488;2023-06-10T21:27:34;13.19;66.94
60242;SHT30;46103;52.076;113.488;2023-06-10T21:30:42;13.11;67.32
60242;SHT30;46103;52.076;113.488;2023-06-10T21:33:51;13.26;66.94
60242;SHT30;46103;52.076;113.488;2023-06-10T21:37:00;13.36;66.62
60242;SHT30;46103;52.076;113.488;2023-06-10T21:40:08;13.47;66.31
60242;SHT30;46103;52.076;113.488;2023-06-10T21:43:16;13.46;66.16
60242;SHT30;46103;52.076;113.488;2023-06-10T21:46:36;13.54;66.27
60242;SHT30;46103;52.076;113.488;2023-06-10T21:49:42;13.64;66.34
60242;SHT30;46103;52.076;113.488;2023-06-10T21:52:48;13.71;66.10
60242;SHT30;46103;52.076;113.488;2023-06-10T21:56:04;13.76;66.02
60242;SHT30;46103;52.076;113.488;2023-06-10T21:59:11;13.87;65.80
60242;SHT30;46103;52.076;113.488;2023-06-10T22:02:17;13.78;66.36
60242;SHT30;46103;52.076;113.488;2023-06-10T22:05:37;13.95;65.97
60242;SHT30;46103;52.076;113.488;2023-06-10T22:08:55;13.99;65.87
60242;SHT30;46103;52.076;113.488;2023-06-10T22:12:00;14.10;65.68
60242;SHT30;46103;52.076;113.488;2023-06-10T22:15:10;14.23;65.25
60242;SHT30;46103;52.076;113.488;2023-06-10T22:18:31;14.42;64.69
60242;SHT30;46103;52.076;113.488;2023-06-10T22:21:39;14.50;64.28
60242;SHT30;46103;52.076;113.488;2023-06-10T22:24:54;14.54;64.33
60242;SHT30;46103;52.076;113.488;2023-06-10T22:28:01;14.63;64.11
60242;SHT30;46103;52.076;113.488;2023-06-10T22:31:08;14.58;64.15
60242;SHT30;46103;52.076;113.488;2023-06-10T22:34:26;14.77;63.71
60242;SHT30;46103;52.076;113.488;2023-06-10T22:37:45;14.82;63.62
60242;SHT30;46103;52.076;113.488;2023-06-10T22:40:53;14.95;63.24
60242;SHT30;46103;52.076;113.488;2023-06-10T22:44:15;15.03;62.98
60242;SHT30;46103;52.076;113.488;2023-06-10T22:47:21;15.05;63.01
60242;SHT30;46103;52.076;113.488;2023-06-10T22:50:26;15.15;63.05